Time;durP1;ratioP1;P1;durP2;ratioP2;P2;SDS_P1;SDS_P2;PMS_P1;PMS_P2;Temp;Humidity;BMP_temperature;BMP_pressure;BME280_temperature;BME280_humidity;BME280_pressure;Samples;Min_cycle;Max_cycle;Signal;HPM_P1;HPM_P2
2023/08/30 00:00:29;;;;;;;11.50;7.40;;;19.30;99.90;;;;;;5021208;28;45111;-66
2023/08/30 00:02:57;;;;;;;11.52;6.75;;;19.20;99.90;;;;;;5013800;28;45178;-66
2023/08/30 00:05:24;;;;;;;10.05;6.97;;;19.30;99.90;;;;;;5024112;28;45312;-66
2023/08/30 00:07:52;;;;;;;14.43;7.22;;;19.30;99.90;;;;;;5024463;28;46339;-66
2023/08/30 00:10:19;;;;;;;11.77;6.75;;;19.30;99.90;;;;;;5018783;28;45811;-66
2023/08/30 00:12:46;;;;;;;13.68;7.80;;;19.20;99.90;;;;;;5017397;28;45166;-66
2023/08/30 00:15:12;;;;;;;11.00;6.55;;;19.20;99.90;;;;;;5022319;28;45088;-67
2023/08/30 00:17:39;;;;;;;10.52;6.25;;;19.20;99.90;;;;;;5013804;28;45832;-66
2023/08/30 00:20:08;;;;;;;17.10;6.70;;;19.20;99.90;;;;;;5023594;28;44608;-66
2023/08/30 00:22:35;;;;;;;12.65;6.45;;;19.20;99.90;;;;;;5019763;28;45308;-66
2023/08/30 00:25:03;;;;;;;14.25;6.60;;;19.20;99.90;;;;;;5024654;28;45386;-66
2023/08/30 00:27:30;;;;;;;14.27;6.25;;;19.20;99.90;;;;;;5020282;28;45166;-66
2023/08/30 00:29:57;;;;;;;16.40;6.55;;;19.20;99.90;;;;;;5024565;28;45241;-66
2023/08/30 00:32:24;;;;;;;13.77;6.03;;;19.10;99.90;;;;;;5015206;28;45172;-67
2023/08/30 00:34:51;;;;;;;14.50;5.88;;;19.10;99.90;;;;;;5022124;28;45187;-66
2023/08/30 00:37:18;;;;;;;16.15;6.22;;;19.00;99.90;;;;;;5023007;28;46321;-66
2023/08/30 00:39:44;;;;;;;22.02;6.32;;;19.00;99.90;;;;;;5024195;28;45556;-66
2023/08/30 00:42:13;;;;;;;14.35;5.82;;;19.00;99.90;;;;;;5019292;28;45194;-66
2023/08/30 00:44:40;;;;;;;11.60;5.55;;;19.00;99.90;;;;;;5014998;28;45036;-66
2023/08/30 00:47:07;;;;;;;18.20;5.78;;;19.00;99.90;;;;;;5011578;28;46298;-66
2023/08/30 00:49:34;;;;;;;14.38;5.75;;;19.00;99.90;;;;;;5011234;28;45127;-66
2023/08/30 00:52:03;;;;;;;10.70;5.75;;;19.00;99.90;;;;;;5009935;28;45175;-66
2023/08/30 00:54:31;;;;;;;9.40;5.40;;;19.00;99.90;;;;;;5021507;28;45141;-66
2023/08/30 00:56:58;;;;;;;12.25;6.05;;;18.90;99.90;;;;;;5010447;28;45497;-66
2023/08/30 00:59:27;;;;;;;15.23;5.25;;;18.90;99.90;;;;;;5021000;28;45276;-66
2023/08/30 01:01:57;;;;;;;12.70;5.68;;;18.90;99.90;;;;;;5023306;28;45307;-66
2023/08/30 01:04:24;;;;;;;12.82;5.72;;;18.90;99.90;;;;;;5019403;28;45766;-66
2023/08/30 01:06:52;;;;;;;17.25;5.75;;;18.90;99.90;;;;;;5023822;28;45260;-66
2023/08/30 01:09:19;;;;;;;10.52;5.80;;;18.90;99.90;;;;;;5020221;28;45805;-66
2023/08/30 01:11:53;;;;;;;12.82;5.53;;;18.90;99.90;;;;;;5021380;28;45096;-66
2023/08/30 01:14:23;;;;;;;15.98;5.70;;;18.90;99.90;;;;;;5016100;28;45151;-66
2023/08/30 01:16:51;;;;;;;11.68;5.45;;;18.90;99.90;;;;;;5019556;28;47955;-67
2023/08/30 01:19:37;;;;;;;11.77;5.03;;;18.90;99.90;;;;;;5013072;28;45606;-66
2023/08/30 01:22:15;;;;;;;13.93;5.00;;;18.80;99.90;;;;;;5015049;28;45112;-66
2023/08/30 01:24:49;;;;;;;14.70;4.75;;;18.80;99.90;;;;;;5021776;28;45008;-66
2023/08/30 01:27:18;;;;;;;15.32;5.35;;;18.80;99.90;;;;;;5023601;28;45997;-66
2023/08/30 01:29:47;;;;;;;12.07;4.63;;;18.80;99.90;;;;;;5023565;28;45235;-66
2023/08/30 01:32:14;;;;;;;9.38;4.38;;;18.70;99.90;;;;;;5020504;28;44608;-66
2023/08/30 01:34:45;;;;;;;16.80;4.30;;;18.70;99.90;;;;;;5021926;28;45107;-66
2023/08/30 01:37:13;;;;;;;10.55;4.70;;;18.70;99.90;;;;;;5017836;28;45565;-66
2023/08/30 01:39:42;;;;;;;8.90;5.03;;;18.70;99.90;;;;;;5015826;28;45087;-66
2023/08/30 01:42:10;;;;;;;8.02;4.72;;;18.60;99.90;;;;;;5013884;28;45262;-66
2023/08/30 01:44:41;;;;;;;14.23;5.10;;;18.60;99.90;;;;;;5023576;28;45197;-66
2023/08/30 01:47:08;;;;;;;9.93;4.70;;;18.60;99.90;;;;;;5014725;28;47383;-66
2023/08/30 01:49:39;;;;;;;9.60;4.60;;;18.60;99.90;;;;;;5020018;28;44923;-66
2023/08/30 01:52:07;;;;;;;11.05;4.93;;;18.60;99.90;;;;;;5022285;28;45372;-66
2023/08/30 01:54:34;;;;;;;8.45;4.80;;;18.60;99.90;;;;;;5028820;28;45127;-66
2023/08/30 01:57:01;;;;;;;10.02;5.13;;;18.50;99.90;;;;;;5026022;28;46237;-66
2023/08/30 01:59:28;;;;;;;7.90;4.07;;;18.50;99.90;;;;;;5027922;28;45178;-66
2023/08/30 02:01:57;;;;;;;5.93;4.35;;;18.50;99.90;;;;;;5027386;28;45203;-66
2023/08/30 02:04:24;;;;;;;12.63;4.65;;;18.50;99.90;;;;;;5017487;28;45334;-66
2023/08/30 02:06:58;;;;;;;7.50;4.72;;;18.50;99.90;;;;;;5027244;28;48096;-66
2023/08/30 02:09:28;;;;;;;5.32;4.10;;;18.50;99.90;;;;;;5024953;28;45153;-66
2023/08/30 02:11:57;;;;;;;6.00;4.25;;;18.50;99.90;;;;;;5016752;28;45088;-66
2023/08/30 02:14:26;;;;;;;7.05;4.20;;;18.50;99.90;;;;;;5029383;28;45259;-66
2023/08/30 02:16:56;;;;;;;12.57;4.43;;;18.60;99.90;;;;;;5020386;28;46227;-66
2023/08/30 02:19:25;;;;;;;8.30;4.32;;;18.60;99.90;;;;;;5026837;28;45578;-67
2023/08/30 02:21:51;;;;;;;5.88;4.35;;;18.50;99.90;;;;;;5028163;28;45254;-66
2023/08/30 02:24:18;;;;;;;7.82;4.40;;;18.50;99.90;;;;;;5026038;28;44699;-66
2023/08/30 02:26:45;;;;;;;7.65;4.75;;;18.50;99.90;;;;;;5029141;28;46660;-66
2023/08/30 02:29:13;;;;;;;5.57;3.70;;;18.50;99.90;;;;;;5027568;28;44652;-66
2023/08/30 02:31:40;;;;;;;7.43;4.05;;;18.50;99.90;;;;;;5028613;28;45097;-66
2023/08/30 02:34:06;;;;;;;8.02;3.65;;;18.40;99.90;;;;;;5024801;28;45282;-66
2023/08/30 02:36:34;;;;;;;6.70;4.18;;;18.40;99.90;;;;;;5025970;28;46801;-66
2023/08/30 02:39:01;;;;;;;15.23;4.50;;;18.40;99.90;;;;;;5023915;28;45190;-66
2023/08/30 02:41:28;;;;;;;11.00;5.00;;;18.40;99.90;;;;;;5028274;28;45218;-66
2023/08/30 02:43:55;;;;;;;4.72;3.70;;;18.50;99.90;;;;;;5027116;28;44742;-66
2023/08/30 02:46:21;;;;;;;9.48;4.63;;;18.50;99.90;;;;;;5028290;28;46052;-66
2023/08/30 02:48:48;;;;;;;7.00;4.40;;;18.50;99.90;;;;;;5016338;28;45278;-66
2023/08/30 02:51:15;;;;;;;9.30;3.90;;;18.50;99.90;;;;;;5028559;28;45187;-66
2023/08/30 02:53:43;;;;;;;10.13;4.38;;;18.40;99.90;;;;;;5025847;28;45174;-67
2023/08/30 02:56:11;;;;;;;10.75;3.70;;;18.40;99.90;;;;;;5022819;28;47012;-67
2023/08/30 02:58:38;;;;;;;8.52;4.10;;;18.40;99.90;;;;;;5020925;28;45239;-66
2023/08/30 03:01:04;;;;;;;6.88;4.38;;;18.40;99.90;;;;;;5017532;28;45103;-66
2023/08/30 03:03:31;;;;;;;7.65;3.92;;;18.40;99.90;;;;;;5017823;28;44636;-66
2023/08/30 03:05:58;;;;;;;8.40;4.57;;;18.40;99.90;;;;;;5025292;28;47215;-67
2023/08/30 03:08:25;;;;;;;6.28;4.07;;;18.40;99.90;;;;;;5025377;28;45043;-66
2023/08/30 03:10:53;;;;;;;11.00;4.60;;;18.40;99.90;;;;;;5023832;28;45203;-66
2023/08/30 03:13:20;;;;;;;5.88;4.03;;;18.40;99.90;;;;;;5011913;28;45092;-66
2023/08/30 03:15:46;;;;;;;9.52;4.13;;;18.40;99.90;;;;;;5020235;28;45133;-66
2023/08/30 03:18:13;;;;;;;7.45;3.92;;;18.40;99.90;;;;;;5023315;28;45121;-66
2023/08/30 03:20:40;;;;;;;7.53;4.05;;;18.40;99.90;;;;;;5017911;28;45280;-66
2023/08/30 03:23:07;;;;;;;6.05;4.15;;;18.40;99.90;;;;;;5018151;28;45111;-66
2023/08/30 03:25:33;;;;;;;9.52;4.97;;;18.40;99.90;;;;;;5019091;28;45218;-66
2023/08/30 03:28:02;;;;;;;6.65;4.22;;;18.40;99.90;;;;;;5024880;28;45155;-66
2023/08/30 03:30:30;;;;;;;8.82;4.00;;;18.40;99.90;;;;;;5023638;28;45222;-66
2023/08/30 03:32:57;;;;;;;5.03;3.85;;;18.30;99.90;;;;;;5022334;28;45214;-66
2023/08/30 03:35:23;;;;;;;11.13;4.63;;;18.40;99.90;;;;;;5019861;28;47435;-66
2023/08/30 03:37:50;;;;;;;5.03;3.75;;;18.30;99.90;;;;;;5024948;28;45096;-66
2023/08/30 03:40:17;;;;;;;6.03;4.32;;;18.30;99.90;;;;;;5022852;28;45151;-66
2023/08/30 03:42:44;;;;;;;8.10;4.13;;;18.30;99.90;;;;;;5018885;28;45024;-66
2023/08/30 03:45:12;;;;;;;9.23;3.95;;;18.30;99.90;;;;;;5019345;28;45230;-66
2023/08/30 03:47:39;;;;;;;7.50;3.95;;;18.30;99.90;;;;;;5016581;28;45242;-66
2023/08/30 03:50:07;;;;;;;6.80;3.97;;;18.30;99.90;;;;;;5023848;28;45163;-66
2023/08/30 03:52:34;;;;;;;8.73;4.55;;;18.30;99.90;;;;;;5020560;28;44666;-66
2023/08/30 03:55:01;;;;;;;7.88;3.85;;;18.20;99.90;;;;;;5024568;28;46447;-66
2023/08/30 03:57:28;;;;;;;9.00;4.85;;;18.20;99.90;;;;;;5020089;28;45384;-66
2023/08/30 03:59:55;;;;;;;8.52;4.13;;;18.30;99.90;;;;;;5022354;28;44770;-66
2023/08/30 04:02:24;;;;;;;9.43;3.97;;;18.30;99.90;;;;;;5017581;28;45094;-66
2023/08/30 04:04:50;;;;;;;6.20;4.22;;;18.30;99.90;;;;;;5024892;28;46513;-66
2023/08/30 04:07:17;;;;;;;11.15;4.75;;;18.30;99.90;;;;;;5022242;28;45151;-66
2023/08/30 04:09:44;;;;;;;7.75;4.50;;;18.40;99.90;;;;;;5013623;28;45265;-66
2023/08/30 04:12:11;;;;;;;7.03;4.03;;;18.40;99.90;;;;;;5018971;28;45329;-66
2023/08/30 04:14:37;;;;;;;7.22;4.22;;;18.40;99.90;;;;;;5019215;28;46072;-66
2023/08/30 04:17:04;;;;;;;9.25;4.50;;;18.50;99.90;;;;;;5016421;28;45163;-66
2023/08/30 04:19:32;;;;;;;8.35;4.65;;;18.50;99.90;;;;;;5022988;28;45106;-66
2023/08/30 04:21:59;;;;;;;6.65;4.40;;;18.50;99.90;;;;;;5014604;28;45246;-66
2023/08/30 04:24:26;;;;;;;6.57;4.25;;;18.50;99.90;;;;;;5014244;28;47327;-66
2023/08/30 04:26:54;;;;;;;10.75;4.47;;;18.50;99.90;;;;;;5009300;28;45112;-66
2023/08/30 04:29:21;;;;;;;7.78;4.20;;;18.50;99.90;;;;;;5021757;28;45503;-66
2023/08/30 04:31:48;;;;;;;11.45;4.28;;;18.50;99.90;;;;;;5024585;28;45145;-66
2023/08/30 04:34:16;;;;;;;6.40;4.25;;;18.50;99.90;;;;;;5018863;28;46229;-66
2023/08/30 04:36:44;;;;;;;4.82;4.13;;;18.50;99.90;;;;;;5016270;28;44632;-66
2023/08/30 04:39:11;;;;;;;8.70;4.55;;;18.50;99.90;;;;;;5017620;28;45056;-66
2023/08/30 04:41:37;;;;;;;9.18;4.55;;;18.50;99.90;;;;;;5021766;28;45210;-66
2023/08/30 04:44:05;;;;;;;7.70;4.00;;;18.50;99.90;;;;;;5020334;28;46404;-66
2023/08/30 04:46:31;;;;;;;7.50;4.28;;;18.50;99.90;;;;;;5013124;28;45602;-66
2023/08/30 04:48:58;;;;;;;7.57;4.25;;;18.50;99.90;;;;;;5019252;28;45276;-66
2023/08/30 04:51:25;;;;;;;5.90;4.15;;;18.50;99.90;;;;;;5014543;28;45219;-66
2023/08/30 04:53:53;;;;;;;5.68;2.85;;;18.60;99.90;;;;;;5022841;28;46528;-66
2023/08/30 04:56:20;;;;;;;7.35;2.88;;;18.80;99.00;;;;;;5021675;28;45207;-66
2023/08/30 04:58:47;;;;;;;5.22;2.97;;;19.00;98.70;;;;;;5014089;28;45143;-66
2023/08/30 05:01:14;;;;;;;4.93;2.83;;;19.50;98.20;;;;;;5020497;28;45139;-66
2023/08/30 05:03:41;;;;;;;6.28;2.88;;;19.70;97.50;;;;;;5016190;28;46234;-66
2023/08/30 05:06:08;;;;;;;4.35;2.70;;;19.90;96.70;;;;;;5025028;28;45204;-66
2023/08/30 05:08:35;;;;;;;5.30;3.65;;;20.00;96.50;;;;;;5018579;28;45116;-66
2023/08/30 05:11:03;;;;;;;7.68;3.78;;;19.90;95.60;;;;;;5017767;28;45354;-66
2023/08/30 05:13:29;;;;;;;8.07;4.13;;;19.50;96.90;;;;;;5016110;28;46339;-66
2023/08/30 05:15:56;;;;;;;8.60;4.22;;;19.20;97.80;;;;;;5016668;28;45119;-65
2023/08/30 05:18:23;;;;;;;6.20;3.95;;;19.00;98.50;;;;;;5015574;28;45126;-65
2023/08/30 05:20:50;;;;;;;6.20;3.90;;;19.00;98.90;;;;;;5015927;28;45140;-66
2023/08/30 05:23:17;;;;;;;8.70;4.35;;;18.90;98.70;;;;;;5019780;28;45175;-65
2023/08/30 05:25:44;;;;;;;6.75;4.10;;;18.90;99.00;;;;;;5017772;28;45315;-65
2023/08/30 05:28:12;;;;;;;7.28;3.60;;;18.90;99.20;;;;;;5017680;28;45337;-65
2023/08/30 05:30:42;;;;;;;8.63;3.70;;;18.90;99.20;;;;;;5018165;28;45162;-66
2023/08/30 05:33:09;;;;;;;6.55;4.35;;;18.90;99.10;;;;;;5022087;28;45133;-66
2023/08/30 05:35:36;;;;;;;7.88;4.30;;;18.90;99.10;;;;;;5016305;28;45122;-66
2023/08/30 05:38:02;;;;;;;9.02;4.53;;;18.90;99.20;;;;;;5015862;28;45259;-65
2023/08/30 05:40:29;;;;;;;6.68;4.60;;;18.90;99.40;;;;;;5019433;28;45281;-65
2023/08/30 05:42:56;;;;;;;6.40;3.90;;;18.90;99.40;;;;;;5015309;28;47087;-66
2023/08/30 05:45:24;;;;;;;9.27;4.22;;;18.90;99.60;;;;;;5018119;28;45479;-66
2023/08/30 05:47:51;;;;;;;7.00;4.50;;;18.90;99.60;;;;;;5017364;28;45159;-65
2023/08/30 05:50:18;;;;;;;7.72;4.53;;;18.90;99.60;;;;;;5021034;28;45142;-66
2023/08/30 05:52:45;;;;;;;6.93;4.53;;;18.90;99.60;;;;;;5016420;28;46268;-66
2023/08/30 05:55:12;;;;;;;8.65;4.47;;;19.00;99.50;;;;;;5011445;28;45171;-65
2023/08/30 05:57:38;;;;;;;7.07;4.40;;;19.00;99.60;;;;;;5011422;28;44616;-66
2023/08/30 06:00:08;;;;;;;7.25;4.43;;;19.00;99.60;;;;;;5019972;28;45373;-65
2023/08/30 06:02:36;;;;;;;8.50;4.00;;;19.10;99.50;;;;;;5012686;28;47216;-66
2023/08/30 06:05:03;;;;;;;8.32;4.60;;;19.10;99.70;;;;;;5014289;28;44702;-66
2023/08/30 06:07:30;;;;;;;9.32;4.68;;;19.20;99.30;;;;;;5016610;28;44667;-66
2023/08/30 06:09:57;;;;;;;9.57;4.20;;;19.10;99.30;;;;;;5014693;28;45049;-66
2023/08/30 06:12:25;;;;;;;10.23;4.53;;;19.20;99.20;;;;;;5017292;28;47002;-66
2023/08/30 06:14:52;;;;;;;12.57;4.43;;;19.20;99.30;;;;;;5009882;28;45234;-66
2023/08/30 06:17:20;;;;;;;8.18;3.75;;;19.20;99.30;;;;;;5016898;28;45147;-66
2023/08/30 06:19:48;;;;;;;9.95;4.20;;;19.20;99.20;;;;;;5016359;28;45202;-66
2023/08/30 06:22:15;;;;;;;8.90;3.78;;;19.30;99.20;;;;;;5012091;28;46977;-66
2023/08/30 06:24:41;;;;;;;7.35;4.15;;;19.40;99.30;;;;;;5017617;28;45132;-66
2023/08/30 06:27:08;;;;;;;8.52;4.28;;;19.50;99.20;;;;;;5017964;28;45189;-66
2023/08/30 06:29:35;;;;;;;22.23;4.18;;;19.50;99.10;;;;;;5011662;28;45133;-66
2023/08/30 06:32:02;;;;;;;11.95;4.47;;;19.50;99.00;;;;;;5015176;28;45257;-66
2023/08/30 06:34:29;;;;;;;8.07;3.90;;;19.60;98.60;;;;;;5011606;28;44576;-66
2023/08/30 06:36:57;;;;;;;12.70;4.15;;;19.50;98.60;;;;;;5010781;28;45223;-66
2023/08/30 06:39:24;;;;;;;10.77;3.97;;;19.50;98.90;;;;;;5009100;28;45173;-66
2023/08/30 06:41:51;;;;;;;8.82;4.18;;;19.50;98.60;;;;;;5019778;28;45207;-66
2023/08/30 06:44:17;;;;;;;8.57;3.65;;;19.50;98.70;;;;;;5016304;28;45106;-66
2023/08/30 06:46:44;;;;;;;10.38;4.22;;;19.60;98.90;;;;;;5010340;28;45135;-66
2023/08/30 06:49:11;;;;;;;8.57;4.18;;;19.60;98.40;;;;;;5019857;28;45232;-66
2023/08/30 06:51:38;;;;;;;10.10;4.10;;;19.50;98.80;;;;;;5022315;28;46256;-66
2023/08/30 06:54:06;;;;;;;8.48;4.00;;;19.50;98.80;;;;;;5023413;28;45191;-66
2023/08/30 06:56:33;;;;;;;8.95;4.15;;;19.50;98.70;;;;;;5023997;28;45108;-66
2023/08/30 06:58:59;;;;;;;7.38;3.72;;;19.50;98.80;;;;;;5024981;28;45253;-66
2023/08/30 07:01:26;;;;;;;8.68;3.40;;;19.50;98.80;;;;;;5015798;28;45244;-66
2023/08/30 07:03:53;;;;;;;11.05;4.45;;;19.60;98.90;;;;;;5019169;28;45393;-66
2023/08/30 07:06:20;;;;;;;11.75;4.05;;;19.60;98.60;;;;;;5017919;28;45146;-66
2023/08/30 07:08:46;;;;;;;4.93;3.53;;;19.60;99.30;;;;;;5018196;28;45104;-66
2023/08/30 07:11:14;;;;;;;8.25;3.92;;;19.70;98.80;;;;;;5025510;28;45344;-66
2023/08/30 07:13:41;;;;;;;5.63;3.35;;;19.70;98.30;;;;;;5021825;28;45109;-66
2023/08/30 07:16:09;;;;;;;6.10;3.30;;;19.80;98.60;;;;;;5020165;28;45174;-66
2023/08/30 07:18:35;;;;;;;11.52;4.15;;;19.80;98.20;;;;;;5020835;28;45143;-66
2023/08/30 07:21:02;;;;;;;5.18;3.33;;;19.80;98.00;;;;;;5013201;28;47102;-66
2023/08/30 07:23:29;;;;;;;6.43;3.10;;;19.70;98.00;;;;;;5015497;28;45226;-66
2023/08/30 07:25:56;;;;;;;6.00;3.53;;;19.80;98.50;;;;;;5016664;28;45391;-66
2023/08/30 07:28:24;;;;;;;6.57;3.58;;;19.90;98.30;;;;;;5018264;28;45171;-66
2023/08/30 07:30:51;;;;;;;7.70;3.72;;;19.90;98.10;;;;;;5019027;28;45391;-67
2023/08/30 07:33:17;;;;;;;6.00;3.30;;;20.00;98.00;;;;;;5017970;28;45076;-66
2023/08/30 07:35:44;;;;;;;7.15;3.83;;;20.00;98.10;;;;;;5023152;28;45036;-66
2023/08/30 07:38:11;;;;;;;6.40;4.00;;;20.10;97.90;;;;;;5017033;28;44665;-66
2023/08/30 07:40:38;;;;;;;6.28;3.30;;;20.10;98.40;;;;;;5017135;28;47315;-66
2023/08/30 07:43:04;;;;;;;9.25;3.15;;;20.20;98.40;;;;;;5013148;28;45110;-66
2023/08/30 07:45:32;;;;;;;4.63;2.88;;;20.20;98.50;;;;;;5016421;28;45256;-66
2023/08/30 07:47:59;;;;;;;6.15;2.65;;;20.20;98.20;;;;;;5021970;28;45267;-66
2023/08/30 07:50:26;;;;;;;6.40;2.63;;;20.30;96.40;;;;;;5019720;28;45254;-66
2023/08/30 07:52:53;;;;;;;11.00;2.75;;;20.20;95.80;;;;;;5020668;28;45170;-66
2023/08/30 07:55:20;;;;;;;4.38;2.35;;;20.20;96.10;;;;;;5021867;28;45106;-66
2023/08/30 07:57:46;;;;;;;5.07;2.45;;;20.20;96.20;;;;;;5021528;28;45072;-66
2023/08/30 08:00:14;;;;;;;4.50;2.70;;;20.20;95.90;;;;;;5017260;28;45243;-66
2023/08/30 08:02:42;;;;;;;6.60;2.55;;;20.20;94.60;;;;;;5014690;28;45163;-66
2023/08/30 08:05:09;;;;;;;6.05;2.78;;;19.90;95.70;;;;;;5016044;28;44671;-67
2023/08/30 08:07:40;;;;;;;6.65;2.88;;;19.80;95.90;;;;;;5021055;28;45179;-66
2023/08/30 08:10:08;;;;;;;5.28;2.75;;;19.70;95.80;;;;;;5022892;28;47012;-66
2023/08/30 08:12:35;;;;;;;8.25;2.80;;;19.70;95.80;;;;;;5021674;28;45178;-66
2023/08/30 08:15:02;;;;;;;4.20;2.60;;;19.80;96.00;;;;;;5021412;28;45072;-68
2023/08/30 08:17:29;;;;;;;7.05;2.88;;;20.00;95.80;;;;;;5016277;28;45128;-66
2023/08/30 08:19:58;;;;;;;5.00;2.70;;;20.20;96.60;;;;;;5018347;28;45318;-66
2023/08/30 08:22:24;;;;;;;5.78;2.83;;;20.10;95.20;;;;;;5018571;28;46051;-66
2023/08/30 08:24:53;;;;;;;4.80;2.17;;;20.10;95.60;;;;;;5016021;28;45136;-66
2023/08/30 08:27:20;;;;;;;6.40;2.90;;;20.20;96.80;;;;;;5021252;28;45249;-66
2023/08/30 08:29:47;;;;;;;5.88;2.53;;;20.20;95.10;;;;;;5022070;28;46338;-65
2023/08/30 08:32:14;;;;;;;5.00;2.80;;;20.30;95.60;;;;;;5018975;28;45298;-67
2023/08/30 08:34:40;;;;;;;7.72;2.95;;;20.40;94.70;;;;;;5019710;28;45108;-67
2023/08/30 08:37:09;;;;;;;6.68;2.63;;;20.30;94.80;;;;;;5019481;28;45204;-66
2023/08/30 08:39:36;;;;;;;4.65;2.22;;;20.00;93.40;;;;;;5019420;28;47010;-67
2023/08/30 08:42:04;;;;;;;5.72;2.13;;;20.10;94.10;;;;;;5023239;28;45168;-67
2023/08/30 08:44:33;;;;;;;5.35;2.70;;;19.90;93.30;;;;;;5022501;28;45176;-66
2023/08/30 08:47:01;;;;;;;8.02;3.15;;;19.80;95.10;;;;;;5019279;28;45535;-67
2023/08/30 08:49:30;;;;;;;6.25;2.85;;;19.50;96.70;;;;;;5019001;28;45203;-67
2023/08/30 08:51:57;;;;;;;5.13;2.95;;;19.30;99.00;;;;;;5018681;28;45091;-67
2023/08/30 08:54:26;;;;;;;6.95;2.97;;;19.40;98.30;;;;;;5022157;28;45163;-66
2023/08/30 08:56:55;;;;;;;6.22;2.60;;;19.40;97.30;;;;;;5020230;28;44735;-67
2023/08/30 08:59:22;;;;;;;5.03;3.08;;;19.50;98.10;;;;;;5016301;28;47906;-67
2023/08/30 09:01:50;;;;;;;5.45;3.10;;;19.50;96.80;;;;;;5013100;28;44620;-67
2023/08/30 09:04:17;;;;;;;6.57;3.35;;;19.50;97.10;;;;;;5011618;28;45268;-67
2023/08/30 09:06:44;;;;;;;7.90;2.88;;;19.60;97.50;;;;;;5019722;28;44742;-66
2023/08/30 09:09:11;;;;;;;7.15;3.25;;;19.60;96.10;;;;;;5015721;28;45110;-67
2023/08/30 09:11:39;;;;;;;6.97;3.08;;;19.60;96.90;;;;;;5015253;28;45144;-67
2023/08/30 09:14:06;;;;;;;8.05;2.88;;;19.70;97.20;;;;;;5014150;28;45251;-66
2023/08/30 09:16:33;;;;;;;6.68;2.47;;;19.90;96.90;;;;;;5019373;28;45099;-67
2023/08/30 09:19:00;;;;;;;4.90;2.28;;;20.00;96.80;;;;;;5022521;28;45337;-66
2023/08/30 09:21:27;;;;;;;6.60;2.83;;;20.00;96.30;;;;;;5023423;28;45332;-66
2023/08/30 09:24:02;;;;;;;5.80;2.40;;;20.20;95.50;;;;;;5008323;28;45120;-66
2023/08/30 09:26:31;;;;;;;3.95;2.50;;;20.20;95.10;;;;;;5014524;28;45033;-67
2023/08/30 09:29:02;;;;;;;5.50;2.13;;;20.20;95.10;;;;;;5021827;28;45163;-67
2023/08/30 09:31:34;;;;;;;8.55;2.83;;;20.20;94.50;;;;;;5010395;28;45014;-67
2023/08/30 09:34:01;;;;;;;4.55;2.20;;;20.20;94.60;;;;;;5017781;28;44630;-67
2023/08/30 09:36:33;;;;;;;5.93;2.45;;;20.20;94.20;;;;;;5016250;28;45446;-67
2023/08/30 09:39:03;;;;;;;4.97;2.33;;;20.10;94.30;;;;;;5010047;28;48016;-67
2023/08/30 09:41:32;;;;;;;8.25;2.25;;;19.90;94.60;;;;;;5019853;28;45256;-67
2023/08/30 09:44:06;;;;;;;3.05;2.00;;;19.90;95.60;;;;;;5019455;28;45239;-67
2023/08/30 09:46:33;;;;;;;5.78;2.10;;;20.20;95.10;;;;;;5021796;28;45250;-67
2023/08/30 09:49:00;;;;;;;2.45;1.95;;;20.30;94.20;;;;;;5015755;28;46338;-67
2023/08/30 09:51:28;;;;;;;5.43;2.10;;;20.40;94.40;;;;;;5011706;28;45641;-67
2023/08/30 09:53:59;;;;;;;5.03;2.08;;;20.50;94.00;;;;;;5010012;28;45044;-67
2023/08/30 09:56:27;;;;;;;5.85;2.03;;;20.50;93.60;;;;;;5015267;28;45353;-66
2023/08/30 09:58:55;;;;;;;5.85;1.73;;;20.50;93.90;;;;;;5016058;28;45173;-66
2023/08/30 10:01:24;;;;;;;3.67;1.60;;;20.60;94.30;;;;;;5016078;28;46619;-67
2023/08/30 10:03:52;;;;;;;3.35;1.63;;;20.70;93.70;;;;;;5020964;28;45214;-66
2023/08/30 10:06:21;;;;;;;2.45;1.42;;;20.70;93.60;;;;;;5019460;28;45222;-66
2023/08/30 10:08:52;;;;;;;3.92;1.50;;;20.70;94.80;;;;;;5002263;28;45456;-66
2023/08/30 10:11:20;;;;;;;3.88;1.42;;;20.70;94.70;;;;;;5017711;28;45179;-66
2023/08/30 10:13:49;;;;;;;3.85;1.30;;;20.70;93.90;;;;;;5015538;28;45182;-66
2023/08/30 10:16:20;;;;;;;6.35;1.50;;;20.70;93.80;;;;;;5023765;28;45113;-66
2023/08/30 10:18:55;;;;;;;5.90;1.77;;;20.60;93.60;;;;;;5019013;28;47281;-67
2023/08/30 10:21:22;;;;;;;3.55;1.75;;;20.50;93.50;;;;;;5017879;28;45207;-67
2023/08/30 10:23:55;;;;;;;9.10;1.88;;;20.30;93.40;;;;;;5024030;28;45167;-67
2023/08/30 10:26:24;;;;;;;7.85;1.92;;;20.20;93.70;;;;;;5023019;28;45205;-67
2023/08/30 10:28:53;;;;;;;13.85;1.88;;;19.90;94.20;;;;;;5018238;28;46545;-67
2023/08/30 10:31:20;;;;;;;10.30;1.73;;;19.60;95.80;;;;;;5023972;28;45124;-67
2023/08/30 10:33:55;;;;;;;12.50;2.38;;;19.50;99.20;;;;;;5021369;28;45174;-67
2023/08/30 10:36:23;;;;;;;5.88;2.30;;;18.90;99.90;;;;;;5024650;28;44913;-67
2023/08/30 10:38:51;;;;;;;7.10;2.58;;;18.80;99.90;;;;;;5032077;28;45435;-66
2023/08/30 10:41:23;;;;;;;7.82;2.88;;;18.70;99.90;;;;;;5025564;28;45169;-66
2023/08/30 10:43:52;;;;;;;5.68;2.85;;;18.90;99.90;;;;;;5013035;28;45190;-67
2023/08/30 10:46:31;;;;;;;11.93;3.22;;;19.00;99.90;;;;;;5013651;28;45276;-66
2023/08/30 10:49:14;;;;;;;9.05;4.18;;;19.00;99.90;;;;;;5024033;28;46648;-66
2023/08/30 10:51:43;;;;;;;8.30;4.20;;;19.10;99.90;;;;;;5022051;28;45277;-67
2023/08/30 10:54:15;;;;;;;8.52;2.90;;;19.10;99.90;;;;;;5025261;28;44730;-67
2023/08/30 10:56:50;;;;;;;10.23;2.10;;;19.20;99.90;;;;;;5021133;28;45281;-67
2023/08/30 10:59:18;;;;;;;6.68;2.50;;;19.30;99.90;;;;;;5018878;28;45188;-67
2023/08/30 11:01:47;;;;;;;8.68;3.70;;;19.30;99.90;;;;;;5017706;28;45232;-66
2023/08/30 11:04:17;;;;;;;9.75;2.72;;;19.20;99.90;;;;;;5022237;28;45131;-67
2023/08/30 11:06:45;;;;;;;5.47;2.45;;;19.30;99.90;;;;;;5017209;28;45090;-67
2023/08/30 11:09:17;;;;;;;6.25;2.83;;;19.40;99.90;;;;;;5010931;28;46372;-67
2023/08/30 11:11:45;;;;;;;5.25;2.53;;;19.40;99.90;;;;;;5007264;28;45204;-67
2023/08/30 11:14:12;;;;;;;4.30;2.22;;;19.40;99.90;;;;;;5016041;28;45178;-67
2023/08/30 11:16:41;;;;;;;4.32;2.75;;;19.30;99.90;;;;;;5024083;28;45179;-67
2023/08/30 11:19:09;;;;;;;2.83;2.20;;;19.30;99.90;;;;;;5022173;28;45584;-67
2023/08/30 11:21:38;;;;;;;3.55;2.33;;;19.30;99.90;;;;;;5018682;28;45199;-67
2023/08/30 11:24:07;;;;;;;4.50;2.28;;;19.30;99.90;;;;;;5018352;28;45168;-67
2023/08/30 11:26:34;;;;;;;6.78;3.13;;;19.30;99.90;;;;;;5022500;28;45247;-67
2023/08/30 11:29:05;;;;;;;4.88;2.47;;;19.20;99.90;;;;;;5025238;28;45232;-67
2023/08/30 11:31:32;;;;;;;3.88;2.65;;;19.10;99.90;;;;;;5019797;28;45172;-66
2023/08/30 11:34:02;;;;;;;3.33;2.20;;;19.10;99.90;;;;;;5023260;28;45162;-59
2023/08/30 11:36:30;;;;;;;3.10;1.67;;;19.90;99.90;;;;;;5023262;28;45125;-64
2023/08/30 11:39:00;;;;;;;5.60;1.70;;;20.70;99.90;;;;;;5024493;28;45237;-65
2023/08/30 11:41:27;;;;;;;3.50;1.92;;;21.20;99.90;;;;;;5027997;28;45681;-63
2023/08/30 11:43:55;;;;;;;1.55;1.30;;;21.40;99.90;;;;;;5024072;28;45194;-62
2023/08/30 11:46:23;;;;;;;2.60;1.50;;;21.50;99.90;;;;;;5023937;28;45398;-62
2023/08/30 11:48:52;;;;;;;2.78;1.30;;;21.60;99.90;;;;;;5020095;28;47449;-61
2023/08/30 11:51:20;;;;;;;2.58;1.35;;;21.60;99.90;;;;;;5026925;28;45182;-63
2023/08/30 11:53:49;;;;;;;3.97;1.70;;;21.70;99.90;;;;;;5028060;28;44624;-63
2023/08/30 11:56:19;;;;;;;1.95;1.42;;;21.60;99.90;;;;;;5028005;28;44849;-65
2023/08/30 11:58:46;;;;;;;2.20;1.40;;;21.50;99.90;;;;;;5024327;28;46177;-65
2023/08/30 12:01:14;;;;;;;3.85;1.60;;;21.30;99.90;;;;;;5028085;28;45040;-63
2023/08/30 12:03:42;;;;;;;3.90;1.90;;;21.20;99.90;;;;;;5027078;28;45121;-62
2023/08/30 12:06:12;;;;;;;3.35;2.17;;;21.20;99.90;;;;;;5023765;28;45414;-62
2023/08/30 12:08:40;;;;;;;3.88;2.47;;;21.30;99.90;;;;;;5020531;28;45457;-62
2023/08/30 12:11:19;;;;;;;3.25;2.30;;;21.30;99.90;;;;;;5027800;28;45056;-64
2023/08/30 12:13:48;;;;;;;2.70;2.08;;;21.40;99.90;;;;;;5028235;28;45026;-63
2023/08/30 12:16:20;;;;;;;3.50;2.30;;;21.40;99.90;;;;;;5024014;28;44719;-65
2023/08/30 12:18:47;;;;;;;3.50;2.38;;;21.40;99.90;;;;;;5014384;28;45603;-65
2023/08/30 12:21:16;;;;;;;3.58;1.80;;;21.40;99.90;;;;;;5026447;28;45107;-63
2023/08/30 12:23:43;;;;;;;3.53;1.60;;;21.40;99.90;;;;;;5023360;28;45216;-63
2023/08/30 12:26:11;;;;;;;2.72;1.50;;;21.50;99.90;;;;;;5013988;28;44667;-65
2023/08/30 12:28:40;;;;;;;2.20;1.55;;;21.50;99.90;;;;;;5020164;28;47346;-65
2023/08/30 12:31:09;;;;;;;3.78;1.50;;;21.50;99.90;;;;;;5027757;28;45085;-62
2023/08/30 12:33:36;;;;;;;1.50;1.35;;;21.40;99.90;;;;;;5023455;28;45158;-62
2023/08/30 12:36:05;;;;;;;2.13;1.30;;;21.50;99.90;;;;;;5024175;28;44713;-61
2023/08/30 12:38:33;;;;;;;6.35;1.70;;;21.40;99.90;;;;;;5020047;28;45273;-65
2023/08/30 12:41:01;;;;;;;2.40;1.45;;;21.40;99.90;;;;;;5009416;28;45112;-65
2023/08/30 12:43:28;;;;;;;2.55;1.50;;;21.40;99.90;;;;;;5027211;28;45170;-64
2023/08/30 12:45:55;;;;;;;2.33;1.48;;;21.40;99.90;;;;;;5017654;28;45329;-62
2023/08/30 12:48:23;;;;;;;1.58;1.27;;;21.40;99.90;;;;;;5027588;28;46315;-61